createdAt,value
2022-11-20T00:01:26.289Z,78.60
2022-11-20T00:03:54.922Z,78.70
2022-11-20T00:06:23.485Z,78.60
2022-11-20T00:08:50.914Z,78.40
2022-11-20T00:11:21.837Z,78.40
2022-11-20T00:13:53.401Z,78.50
2022-11-20T00:16:23.923Z,78.50
2022-11-20T00:18:51.279Z,78.50
2022-11-20T00:21:22.087Z,78.30
2022-11-20T00:23:50.189Z,78.10
2022-11-20T00:26:20.353Z,78.20
2022-11-20T00:28:56.147Z,78.40
2022-11-20T00:31:23.577Z,78.80
2022-11-20T00:33:50.958Z,78.50
2022-11-20T00:36:21.441Z,78.60
2022-11-20T00:38:52.663Z,78.70
2022-11-20T00:41:19.405Z,78.50
2022-11-20T00:43:46.160Z,78.40
2022-11-20T00:46:19.446Z,78.40
2022-11-20T00:48:47.180Z,78.60
2022-11-20T00:51:18.482Z,78.50
2022-11-20T00:53:46.508Z,78.50
2022-11-20T00:56:16.445Z,78.50
2022-11-20T00:58:46.859Z,78.70
2022-11-20T01:01:18.098Z,78.70
2022-11-20T01:03:48.951Z,78.70
2022-11-20T01:06:21.200Z,78.60
2022-11-20T01:08:50.100Z,78.60
2022-11-20T01:11:21.593Z,78.50
2022-11-20T01:13:50.859Z,78.60
2022-11-20T01:16:23.352Z,78.60
2022-11-20T01:18:53.130Z,78.60
2022-11-20T01:21:30.959Z,78.60
2022-11-20T01:23:58.556Z,78.70
2022-11-20T01:26:32.659Z,78.30
2022-11-20T01:29:00.965Z,78.10
2022-11-20T01:31:31.464Z,78.10
2022-11-20T01:34:02.414Z,78.20
2022-11-20T01:36:32.654Z,78.30
2022-11-20T01:39:05.125Z,78.30
2022-11-20T01:41:53.226Z,78.40
2022-11-20T01:44:42.920Z,78.30
2022-11-20T01:47:16.783Z,78.30
2022-11-20T01:49:55.657Z,78.10
2022-11-20T01:52:47.434Z,78.30
2022-11-20T01:55:22.950Z,78.10
2022-11-20T01:57:50.465Z,78.10
2022-11-20T02:00:20.049Z,78.20
2022-11-20T02:02:59.581Z,78.30
2022-11-20T02:05:42.787Z,78.50
2022-11-20T02:08:09.703Z,78.40
2022-11-20T02:10:36.509Z,78.90
2022-11-20T02:13:22.915Z,78.10
2022-11-20T02:15:50.586Z,78.10
2022-11-20T02:18:20.432Z,78.00
2022-11-20T02:20:54.360Z,78.10
2022-11-20T02:23:40.475Z,78.00
2022-11-20T02:26:12.695Z,78.00
2022-11-20T02:28:39.807Z,77.70
2022-11-20T02:31:06.544Z,76.90
2022-11-20T02:33:33.327Z,77.40
2022-11-20T02:36:00.064Z,77.30
2022-11-20T02:38:27.146Z,77.30
2022-11-20T02:40:55.691Z,77.20
2022-11-20T02:43:24.074Z,76.90
2022-11-20T02:45:50.793Z,76.90
2022-11-20T02:48:17.585Z,76.90
2022-11-20T02:50:44.370Z,76.90
2022-11-20T02:53:11.224Z,77.00
2022-11-20T02:55:38.027Z,77.00
2022-11-20T02:58:04.798Z,77.00
2022-11-20T03:00:31.756Z,77.00
2022-11-20T03:02:58.732Z,76.90
2022-11-20T03:05:25.558Z,76.80
2022-11-20T03:07:52.250Z,76.70
2022-11-20T03:10:19.973Z,76.80
2022-11-20T03:12:46.726Z,76.60
2022-11-20T03:15:13.518Z,76.20
2022-11-20T03:17:40.237Z,76.70
2022-11-20T03:20:08.388Z,76.80
2022-11-20T03:22:35.101Z,76.80
2022-11-20T03:25:01.850Z,76.80
2022-11-20T03:27:33.023Z,76.80
2022-11-20T03:29:59.786Z,76.90
2022-11-20T03:32:26.527Z,76.80
2022-11-20T03:34:53.220Z,76.80
2022-11-20T03:37:19.920Z,76.90
2022-11-20T03:39:46.688Z,77.00
2022-11-20T03:42:32.113Z,77.00
2022-11-20T03:44:58.909Z,77.00
2022-11-20T03:47:25.613Z,77.00
2022-11-20T03:49:52.771Z,77.10
2022-11-20T03:52:19.583Z,77.10
2022-11-20T03:54:46.308Z,77.00
2022-11-20T03:57:13.166Z,77.00
2022-11-20T03:59:39.986Z,77.00
2022-11-20T04:02:06.881Z,77.70
2022-11-20T04:04:33.605Z,77.00
2022-11-20T04:07:00.402Z,77.00
2022-11-20T04:09:27.279Z,77.00
2022-11-20T04:11:54.065Z,77.00
2022-11-20T04:14:21.685Z,76.90
2022-11-20T04:16:48.564Z,76.90
2022-11-20T04:19:17.680Z,77.00
2022-11-20T04:21:45.715Z,77.00
2022-11-20T04:24:12.581Z,77.00
2022-11-20T04:26:39.707Z,76.90
2022-11-20T04:29:06.758Z,76.90
2022-11-20T04:31:35.470Z,76.90
2022-11-20T04:34:05.996Z,76.80
2022-11-20T04:36:34.048Z,76.80
2022-11-20T04:39:05.585Z,76.80
2022-11-20T04:41:36.508Z,76.80
2022-11-20T04:44:06.108Z,76.70
2022-11-20T04:46:40.702Z,76.60
2022-11-20T04:49:08.692Z,76.60
2022-11-20T04:51:35.574Z,76.50
2022-11-20T04:54:02.417Z,76.50
2022-11-20T04:56:29.229Z,77.10
2022-11-20T04:58:56.001Z,76.40
2022-11-20T05:01:25.339Z,76.50
2022-11-20T05:03:52.541Z,76.60
2022-11-20T05:06:23.186Z,76.60
2022-11-20T05:08:50.446Z,76.60
2022-11-20T05:11:21.839Z,76.60
2022-11-20T05:13:50.522Z,76.60
2022-11-20T05:16:21.521Z,76.50
2022-11-20T05:18:48.904Z,76.60
2022-11-20T05:21:16.844Z,76.60
2022-11-20T05:23:45.596Z,76.60
2022-11-20T05:26:24.136Z,76.70
2022-11-20T05:28:52.228Z,76.70
2022-11-20T05:31:27.728Z,76.60
2022-11-20T05:33:57.749Z,76.70
2022-11-20T05:36:24.889Z,76.60
2022-11-20T05:38:54.414Z,76.60
2022-11-20T05:41:23.734Z,76.60
2022-11-20T05:43:51.565Z,76.60
2022-11-20T05:46:27.780Z,76.80
2022-11-20T05:48:55.686Z,76.90
2022-11-20T05:51:22.627Z,77.00
2022-11-20T05:53:49.452Z,76.90
2022-11-20T05:56:20.480Z,76.90
2022-11-20T05:58:47.971Z,76.90
2022-11-20T06:01:19.934Z,77.00
2022-11-20T06:03:48.495Z,77.10
2022-11-20T06:06:17.358Z,77.00
2022-11-20T06:08:45.701Z,77.00
2022-11-20T06:11:15.198Z,77.00
2022-11-20T06:13:43.048Z,77.80
2022-11-20T06:16:12.239Z,77.10
2022-11-20T06:18:39.780Z,77.00
2022-11-20T06:21:14.591Z,77.00
2022-11-20T06:23:42.357Z,77.10
2022-11-20T06:26:17.034Z,77.00
2022-11-20T06:28:44.008Z,77.00
2022-11-20T06:31:15.260Z,76.80
2022-11-20T06:33:43.643Z,76.80
2022-11-20T06:36:13.624Z,76.80
2022-11-20T06:38:41.436Z,76.60
2022-11-20T06:41:13.817Z,76.50
2022-11-20T06:43:40.749Z,76.50
2022-11-20T06:46:07.983Z,76.50
2022-11-20T06:48:34.739Z,76.40
2022-11-20T06:51:05.532Z,76.30
2022-11-20T06:53:32.676Z,76.40
2022-11-20T06:56:00.079Z,76.50
2022-11-20T06:58:32.048Z,76.50
2022-11-20T07:01:06.522Z,76.50
2022-11-20T07:03:33.532Z,76.40
2022-11-20T07:06:02.127Z,76.30
2022-11-20T07:08:29.338Z,76.40
2022-11-20T07:11:05.853Z,76.30
2022-11-20T07:13:33.133Z,76.20
2022-11-20T07:16:07.626Z,76.20
2022-11-20T07:18:34.430Z,76.30
2022-11-20T07:21:03.820Z,76.20
2022-11-20T07:23:30.532Z,76.20
2022-11-20T07:25:57.283Z,76.10
2022-11-20T07:28:24.017Z,76.00
2022-11-20T07:30:52.987Z,76.00
2022-11-20T07:33:20.803Z,76.00
2022-11-20T07:35:47.659Z,75.90
2022-11-20T07:38:14.430Z,75.80
2022-11-20T07:40:41.213Z,75.70
2022-11-20T07:43:08.177Z,75.70
2022-11-20T07:45:35.055Z,75.70
2022-11-20T07:48:01.844Z,75.70
2022-11-20T07:50:28.640Z,75.70
2022-11-20T07:53:05.741Z,75.70
2022-11-20T07:55:33.049Z,75.60
2022-11-20T07:58:00.258Z,75.40
2022-11-20T08:00:27.878Z,75.40
2022-11-20T08:02:54.920Z,75.40
2022-11-20T08:05:22.493Z,74.60
2022-11-20T08:07:49.425Z,75.20
2022-11-20T08:10:17.264Z,75.10
2022-11-20T08:13:09.248Z,75.00
2022-11-20T08:15:38.527Z,74.80
2022-11-20T08:20:58.818Z,74.70
2022-11-20T08:23:25.595Z,74.60
2022-11-20T08:25:52.466Z,74.50
2022-11-20T08:28:21.825Z,74.50
2022-11-20T08:30:49.904Z,74.70
2022-11-20T08:33:18.234Z,74.90
2022-11-20T08:35:45.285Z,75.00
2022-11-20T08:38:12.793Z,74.90
2022-11-20T08:40:39.548Z,74.90
2022-11-20T08:43:06.249Z,74.90
2022-11-20T08:45:35.003Z,74.80
2022-11-20T08:48:04.400Z,74.70
2022-11-20T08:50:33.216Z,74.70
2022-11-20T08:53:05.539Z,74.60
2022-11-20T08:55:32.663Z,74.50
2022-11-20T08:57:59.430Z,74.70
2022-11-20T09:00:26.186Z,74.50
2022-11-20T09:02:53.365Z,74.40
2022-11-20T09:05:20.397Z,74.40
2022-11-20T09:07:47.154Z,74.30
2022-11-20T09:10:24.195Z,74.30
2022-11-20T09:12:52.767Z,74.30
2022-11-20T09:15:20.514Z,74.20
2022-11-20T09:17:59.961Z,74.10
2022-11-20T09:20:29.888Z,74.20
2022-11-20T09:22:57.897Z,74.30
2022-11-20T09:25:25.166Z,74.20
2022-11-20T09:28:01.211Z,74.10
2022-11-20T09:30:28.693Z,74.00
2022-11-20T09:32:55.687Z,74.00
2022-11-20T09:35:22.508Z,74.20
2022-11-20T09:37:49.284Z,74.20
2022-11-20T09:40:29.483Z,74.00
2022-11-20T09:43:31.117Z,73.90
2022-11-20T09:46:21.775Z,73.70
2022-11-20T09:49:16.336Z,73.50
2022-11-20T09:51:50.609Z,73.50
2022-11-20T09:54:27.687Z,73.40
2022-11-20T09:57:00.973Z,73.10
2022-11-20T09:59:40.649Z,73.10
2022-11-20T10:02:18.344Z,73.00
2022-11-20T10:04:54.640Z,72.90
2022-11-20T10:07:35.861Z,73.00
2022-11-20T10:10:02.841Z,73.00
2022-11-20T10:13:21.195Z,72.90
2022-11-20T10:16:29.988Z,72.80
2022-11-20T10:19:29.833Z,72.70
2022-11-20T10:22:42.222Z,72.50
2022-11-20T10:25:20.185Z,72.60
2022-11-20T10:28:16.614Z,72.50
2022-11-20T10:30:50.111Z,72.30
2022-11-20T10:33:24.804Z,72.40
2022-11-20T10:36:45.098Z,72.10
2022-11-20T10:39:22.020Z,71.90
2022-11-20T10:41:54.453Z,71.90
2022-11-20T10:44:53.725Z,71.90
2022-11-20T10:47:23.125Z,71.90
2022-11-20T10:49:58.101Z,72.00
2022-11-20T10:52:43.968Z,71.90
2022-11-20T10:55:48.055Z,71.90
2022-11-20T10:58:46.362Z,71.80
2022-11-20T11:01:19.209Z,71.80
2022-11-20T11:03:46.560Z,71.80
2022-11-20T11:06:46.209Z,71.80
2022-11-20T11:09:35.471Z,71.80
2022-11-20T11:12:07.012Z,71.90
2022-11-20T11:14:44.880Z,71.90
2022-11-20T11:17:23.034Z,71.90
2022-11-20T11:20:12.014Z,71.90
2022-11-20T11:23:05.580Z,71.90
2022-11-20T11:25:36.236Z,71.70
2022-11-20T11:28:19.514Z,71.80
2022-11-20T11:30:47.291Z,71.60
2022-11-20T11:33:22.919Z,71.60
2022-11-20T11:35:59.178Z,70.70
2022-11-20T11:38:38.874Z,71.00
2022-11-20T11:41:10.183Z,70.90
2022-11-20T11:43:57.134Z,71.00
2022-11-20T11:46:34.595Z,71.00
2022-11-20T11:49:11.184Z,71.00
2022-11-20T11:51:59.397Z,70.80
2022-11-20T11:54:42.651Z,70.90
2022-11-20T11:57:44.487Z,70.70
2022-11-20T12:00:18.703Z,70.60
2022-11-20T12:02:50.904Z,70.80
2022-11-20T12:05:25.396Z,70.90
2022-11-20T12:08:25.310Z,71.00
2022-11-20T12:11:07.297Z,70.80
2022-11-20T12:13:45.357Z,71.10
2022-11-20T12:16:16.350Z,71.10
2022-11-20T12:18:43.857Z,71.20
2022-11-20T12:21:52.119Z,71.10
2022-11-20T12:25:01.375Z,71.30
2022-11-20T12:28:02.113Z,71.50
2022-11-20T12:30:29.338Z,71.70
2022-11-20T12:33:05.940Z,71.80
2022-11-20T12:36:06.822Z,72.10
2022-11-20T12:39:13.072Z,72.10
2022-11-20T12:42:17.464Z,72.00
2022-11-20T12:45:10.496Z,71.90
2022-11-20T12:47:50.042Z,71.80
2022-11-20T12:50:53.373Z,71.80
2022-11-20T12:53:38.571Z,71.70
2022-11-20T12:56:33.767Z,71.60
2022-11-20T12:59:54.051Z,71.50
2022-11-20T13:03:05.553Z,71.60
2022-11-20T13:06:00.485Z,71.60
2022-11-20T13:08:35.553Z,71.60
2022-11-20T13:11:18.193Z,71.70
2022-11-20T13:14:14.760Z,72.40
2022-11-20T13:17:05.926Z,71.70
2022-11-20T13:19:34.438Z,71.80
2022-11-20T13:22:01.495Z,71.80
2022-11-20T13:24:32.158Z,71.90
2022-11-20T13:27:25.369Z,72.10
2022-11-20T13:30:19.413Z,71.80
2022-11-20T13:33:00.779Z,71.70
2022-11-20T13:35:30.706Z,71.60
2022-11-20T13:38:16.151Z,71.50
2022-11-20T13:40:56.718Z,71.30
2022-11-20T13:43:42.926Z,71.30
2022-11-20T13:46:11.227Z,71.10
2022-11-20T13:48:44.913Z,71.20
2022-11-20T13:51:35.294Z,71.20
2022-11-20T13:54:27.521Z,71.30
2022-11-20T13:57:09.447Z,71.30
2022-11-20T13:59:59.615Z,71.30
2022-11-20T14:02:30.788Z,71.30
2022-11-20T14:05:01.978Z,71.40
2022-11-20T14:07:41.745Z,71.40
2022-11-20T14:10:30.087Z,71.40
2022-11-20T14:12:58.675Z,71.50
2022-11-20T14:15:34.979Z,71.60
2022-11-20T14:18:15.194Z,71.60
2022-11-20T14:20:44.230Z,72.20
2022-11-20T14:23:11.911Z,71.60
2022-11-20T14:25:45.806Z,71.50
2022-11-20T14:28:30.600Z,71.70
2022-11-20T14:30:58.618Z,71.90
2022-11-20T14:33:27.838Z,71.90
2022-11-20T14:35:59.332Z,71.90
2022-11-20T14:38:33.395Z,71.80
2022-11-20T14:41:08.705Z,71.40
2022-11-20T14:43:37.002Z,71.00
2022-11-20T14:46:10.828Z,70.80
2022-11-20T14:48:46.471Z,70.60
2022-11-20T14:51:37.897Z,70.60
2022-11-20T14:54:26.502Z,70.60
2022-11-20T14:57:02.900Z,70.60
2022-11-20T14:59:33.383Z,70.80
2022-11-20T15:02:09.697Z,71.60
2022-11-20T15:04:58.757Z,71.20
2022-11-20T15:07:32.986Z,71.50
2022-11-20T15:10:12.291Z,71.60
2022-11-20T15:12:48.742Z,71.70
2022-11-20T15:15:40.004Z,71.80
2022-11-20T15:18:13.393Z,71.90
2022-11-20T15:20:41.194Z,71.90
2022-11-20T15:23:16.994Z,71.90
2022-11-20T15:25:44.019Z,71.80
2022-11-20T15:28:21.846Z,71.70
2022-11-20T15:30:50.785Z,71.70
2022-11-20T15:33:19.050Z,71.80
2022-11-20T15:35:46.205Z,71.90
2022-11-20T15:38:12.996Z,71.90
2022-11-20T15:40:39.843Z,71.90
2022-11-20T15:43:13.004Z,71.90
2022-11-20T15:45:45.880Z,71.90
2022-11-20T15:48:18.626Z,71.90
2022-11-20T15:51:00.634Z,71.80
2022-11-20T15:53:27.456Z,71.80
2022-11-20T15:55:54.184Z,71.80
2022-11-20T15:58:20.965Z,71.80
2022-11-20T16:00:47.733Z,71.80
2022-11-20T16:03:16.502Z,71.90
2022-11-20T16:05:43.942Z,71.80
2022-11-20T16:08:11.955Z,71.70
2022-11-20T16:10:40.198Z,71.60
2022-11-20T16:13:36.306Z,71.60
2022-11-20T16:16:19.751Z,71.50
2022-11-20T16:18:46.476Z,71.30
2022-11-20T16:21:14.418Z,71.30
2022-11-20T16:23:41.844Z,71.30
2022-11-20T16:26:21.623Z,71.50
2022-11-20T16:28:48.369Z,71.60
2022-11-20T16:31:18.325Z,71.60
2022-11-20T16:33:56.392Z,71.80
2022-11-20T16:36:26.925Z,71.80
2022-11-20T16:38:56.259Z,71.90
2022-11-20T16:41:24.614Z,71.90
2022-11-20T16:43:55.220Z,71.90
2022-11-20T16:46:23.866Z,72.30
2022-11-20T16:48:59.747Z,72.10
2022-11-20T16:51:28.988Z,72.20
2022-11-20T16:53:56.023Z,72.20
2022-11-20T16:56:26.704Z,72.30
2022-11-20T16:58:57.338Z,72.40
2022-11-20T17:01:27.475Z,72.40
2022-11-20T17:03:58.694Z,72.60
2022-11-20T17:06:31.691Z,72.80
2022-11-20T17:08:59.443Z,72.90
2022-11-20T17:11:27.671Z,73.10
2022-11-20T17:14:07.358Z,73.20
2022-11-20T17:16:36.680Z,73.30
2022-11-20T17:19:05.288Z,73.20
2022-11-20T17:21:36.322Z,73.10
2022-11-20T17:24:06.446Z,73.10
2022-11-20T17:26:35.000Z,73.00
2022-11-20T17:29:06.097Z,73.00
2022-11-20T17:31:35.238Z,73.10
2022-11-20T17:34:02.325Z,73.10
2022-11-20T17:36:30.454Z,73.10
2022-11-20T17:38:57.733Z,73.10
2022-11-20T17:41:27.705Z,73.30
2022-11-20T17:43:56.602Z,73.30
2022-11-20T17:46:27.189Z,73.30
2022-11-20T17:48:55.932Z,73.40
2022-11-20T17:51:29.662Z,73.30
2022-11-20T17:54:02.488Z,73.30
2022-11-20T17:56:53.010Z,73.30
2022-11-20T17:59:19.948Z,73.10
2022-11-20T18:01:47.283Z,73.00
2022-11-20T18:04:15.049Z,73.00
2022-11-20T18:06:43.053Z,73.10
2022-11-20T18:09:09.955Z,73.10
2022-11-20T18:11:39.864Z,73.00
2022-11-20T18:14:32.388Z,73.20
2022-11-20T18:17:09.494Z,73.10
2022-11-20T18:19:45.075Z,73.00
2022-11-20T18:22:22.824Z,72.90
2022-11-20T18:24:49.737Z,72.80
2022-11-20T18:27:20.637Z,72.70
2022-11-20T18:29:51.731Z,72.80
2022-11-20T18:32:21.484Z,72.70
2022-11-20T18:34:49.237Z,72.80
2022-11-20T18:37:16.657Z,72.70
2022-11-20T18:39:43.970Z,72.70
2022-11-20T18:42:34.929Z,72.70
2022-11-20T18:45:04.478Z,72.80
2022-11-20T18:47:37.344Z,72.80
2022-11-20T18:50:07.250Z,72.70
2022-11-20T18:52:40.434Z,72.00
2022-11-20T18:55:08.012Z,72.70
2022-11-20T18:57:34.968Z,72.50
2022-11-20T19:00:07.920Z,73.30
2022-11-20T19:02:40.964Z,72.70
2022-11-20T19:05:14.773Z,72.70
2022-11-20T19:07:42.349Z,72.70
2022-11-20T19:10:09.865Z,72.70
2022-11-20T19:12:36.976Z,72.70
2022-11-20T19:15:05.200Z,72.70
2022-11-20T19:17:33.606Z,72.70
2022-11-20T19:20:00.929Z,72.70
2022-11-20T19:22:27.668Z,72.70
2022-11-20T19:24:54.364Z,72.70
2022-11-20T19:27:21.131Z,72.80
2022-11-20T19:29:48.258Z,72.90
2022-11-20T19:32:16.278Z,73.00
2022-11-20T19:34:43.706Z,73.10
2022-11-20T19:37:10.668Z,73.20
2022-11-20T19:39:37.845Z,73.20
2022-11-20T19:42:04.639Z,73.30
2022-11-20T19:44:32.861Z,73.30
2022-11-20T19:46:59.670Z,73.30
2022-11-20T19:49:26.649Z,73.20
2022-11-20T19:51:53.600Z,73.20
2022-11-20T19:54:20.311Z,73.40
2022-11-20T19:56:48.771Z,73.50
2022-11-20T19:59:15.540Z,73.70
2022-11-20T20:01:42.790Z,73.60
2022-11-20T20:04:09.566Z,74.30
2022-11-20T20:06:41.644Z,73.60
2022-11-20T20:09:13.235Z,73.60
2022-11-20T20:11:44.383Z,73.60
2022-11-20T20:14:14.981Z,73.60
2022-11-20T20:16:42.959Z,73.60
2022-11-20T20:19:15.161Z,73.70
2022-11-20T20:21:42.259Z,73.70
2022-11-20T20:24:11.357Z,73.70
2022-11-20T20:26:38.443Z,73.70
2022-11-20T20:29:05.199Z,73.60
2022-11-20T20:31:33.993Z,73.60
2022-11-20T20:34:03.276Z,73.60
2022-11-20T20:36:30.028Z,73.60
2022-11-20T20:39:04.994Z,73.60
2022-11-20T20:41:32.480Z,73.60
2022-11-20T20:44:17.910Z,73.60
2022-11-20T20:46:47.827Z,73.50
2022-11-20T20:49:17.193Z,73.30
2022-11-20T20:54:15.976Z,72.70
2022-11-20T20:56:42.738Z,73.30
2022-11-20T20:59:09.572Z,73.20
2022-11-20T21:01:36.393Z,73.10
2022-11-20T21:04:03.217Z,73.10
2022-11-20T21:06:29.935Z,73.00
2022-11-20T21:08:57.518Z,73.00
2022-11-20T21:11:24.545Z,73.10
2022-11-20T21:13:52.047Z,73.10
2022-11-20T21:16:22.250Z,73.10
2022-11-20T21:18:49.370Z,73.10
2022-11-20T21:21:36.825Z,73.30
2022-11-20T21:24:04.290Z,73.50
2022-11-20T21:26:30.988Z,73.50
2022-11-20T21:28:57.846Z,73.60
2022-11-20T21:31:26.945Z,73.70
2022-11-20T21:33:56.481Z,73.90
2022-11-20T21:36:27.239Z,73.90
2022-11-20T21:38:56.364Z,74.00
2022-11-20T21:41:25.160Z,74.20
2022-11-20T21:44:16.265Z,74.20
2022-11-20T21:46:43.430Z,74.30
2022-11-20T21:49:11.496Z,74.30
2022-11-20T21:51:38.285Z,74.40
2022-11-20T21:54:05.623Z,74.30
2022-11-20T21:56:32.726Z,74.50
2022-11-20T21:58:59.476Z,74.60
2022-11-20T22:01:29.662Z,74.60
2022-11-20T22:04:02.385Z,74.70
2022-11-20T22:06:34.370Z,74.80
2022-11-20T22:09:02.803Z,74.80
2022-11-20T22:11:30.235Z,74.80
2022-11-20T22:14:16.293Z,74.90
2022-11-20T22:16:43.248Z,75.00
2022-11-20T22:19:10.019Z,75.00
2022-11-20T22:21:40.158Z,75.10
2022-11-20T22:24:07.901Z,75.40
2022-11-20T22:26:40.182Z,75.40
2022-11-20T22:29:12.283Z,75.40
2022-11-20T22:31:39.009Z,75.40
2022-11-20T22:34:05.727Z,75.40
2022-11-20T22:36:32.492Z,75.50
2022-11-20T22:39:02.025Z,75.50
2022-11-20T22:41:30.124Z,75.70
2022-11-20T22:43:59.944Z,75.20
2022-11-20T22:46:29.863Z,75.90
2022-11-20T22:49:01.665Z,75.90
2022-11-20T22:51:35.200Z,75.90
2022-11-20T22:54:03.622Z,75.90
2022-11-20T22:56:31.345Z,75.90
2022-11-20T22:58:58.348Z,75.90
2022-11-20T23:01:29.015Z,76.60
2022-11-20T23:04:02.353Z,76.00
2022-11-20T23:06:29.991Z,76.10
2022-11-20T23:08:57.074Z,76.10
2022-11-20T23:11:27.751Z,76.10
2022-11-20T23:13:58.610Z,76.20
2022-11-20T23:16:28.342Z,76.20
2022-11-20T23:18:58.601Z,76.30
2022-11-20T23:21:26.365Z,76.30
2022-11-20T23:23:56.260Z,76.40
2022-11-20T23:26:27.935Z,76.60
2022-11-20T23:28:57.409Z,76.70
2022-11-20T23:31:25.438Z,76.60
2022-11-20T23:33:52.389Z,76.60
2022-11-20T23:36:19.336Z,76.40
2022-11-20T23:38:46.473Z,76.30
2022-11-20T23:41:14.672Z,76.50
2022-11-20T23:43:41.649Z,76.50
2022-11-20T23:46:13.744Z,76.30
2022-11-20T23:48:45.111Z,76.20
2022-11-20T23:51:12.205Z,76.10
2022-11-20T23:53:39.136Z,76.00
2022-11-20T23:56:06.359Z,75.90
2022-11-20T23:58:37.582Z,75.70
